createdAt,value
2022-08-17T00:00:05.753Z,32.53
2022-08-17T00:02:32.854Z,33.30
2022-08-17T00:05:08.012Z,31.38
2022-08-17T00:07:34.767Z,33.08
2022-08-17T00:10:01.481Z,32.38
2022-08-17T00:12:41.240Z,31.15
2022-08-17T00:15:13.462Z,32.33
2022-08-17T00:17:42.459Z,35.60
2022-08-17T00:20:12.349Z,32.38
2022-08-17T00:22:39.168Z,31.05
2022-08-17T00:25:10.364Z,32.97
2022-08-17T00:27:37.098Z,33.78
2022-08-17T00:30:08.766Z,31.27
2022-08-17T00:33:14.543Z,28.42
2022-08-17T00:35:32.302Z,33.33
2022-08-17T00:37:58.997Z,30.85
2022-08-17T00:40:26.017Z,31.80
2022-08-17T00:42:53.502Z,30.05
2022-08-17T00:45:21.127Z,33.83
2022-08-17T00:47:49.595Z,33.33
2022-08-17T00:50:19.772Z,28.65
2022-08-17T00:52:55.385Z,31.15
2022-08-17T00:55:24.147Z,31.15
2022-08-17T00:57:55.585Z,31.30
2022-08-17T01:00:28.160Z,30.67
2022-08-17T01:03:06.259Z,33.03
2022-08-17T01:05:34.800Z,33.45
2022-08-17T01:08:02.587Z,30.83
2022-08-17T01:10:58.765Z,34.28
2022-08-17T01:13:39.830Z,33.75
2022-08-17T01:16:24.397Z,35.65
2022-08-17T01:18:54.258Z,31.80
2022-08-17T01:21:47.111Z,30.42
2022-08-17T01:24:14.235Z,26.13
2022-08-17T01:26:45.482Z,26.88
2022-08-17T01:29:12.866Z,27.25
2022-08-17T01:31:44.394Z,29.38
2022-08-17T01:34:13.894Z,27.38
2022-08-17T01:36:43.134Z,27.27
2022-08-17T01:39:16.168Z,31.48
2022-08-17T01:41:47.186Z,32.58
2022-08-17T01:44:15.688Z,29.17
2022-08-17T01:46:42.396Z,27.30
2022-08-17T01:49:11.439Z,30.15
2022-08-17T01:51:39.398Z,33.72
2022-08-17T01:54:10.812Z,31.98
2022-08-17T01:56:41.830Z,29.83
2022-08-17T01:59:08.874Z,28.25
2022-08-17T02:01:37.018Z,29.52
2022-08-17T02:04:06.534Z,28.70
2022-08-17T02:06:45.274Z,29.50
2022-08-17T02:09:25.666Z,31.70
2022-08-17T02:11:57.098Z,33.75
2022-08-17T02:14:24.940Z,32.30
2022-08-17T02:16:52.193Z,33.78
2022-08-17T02:19:19.679Z,32.33
2022-08-17T02:21:49.674Z,30.38
2022-08-17T02:25:00.131Z,33.33
2022-08-17T02:27:10.429Z,35.20
2022-08-17T02:29:37.524Z,37.33
2022-08-17T02:32:05.000Z,34.53
2022-08-17T02:34:32.501Z,35.30
2022-08-17T02:36:59.521Z,36.30
2022-08-17T02:39:26.252Z,38.22
2022-08-17T02:42:01.637Z,37.75
2022-08-17T02:44:39.023Z,39.95
2022-08-17T02:47:08.333Z,33.40
2022-08-17T02:49:35.300Z,37.53
2022-08-17T02:52:06.823Z,41.20
2022-08-17T02:54:40.053Z,37.17
2022-08-17T02:57:07.879Z,36.33
2022-08-17T02:59:34.897Z,31.67
2022-08-17T03:02:03.891Z,31.77
2022-08-17T03:04:31.220Z,38.03
2022-08-17T03:07:02.152Z,32.90
2022-08-17T03:09:28.867Z,34.30
2022-08-17T03:11:56.133Z,34.88
2022-08-17T03:14:26.208Z,32.28
2022-08-17T03:16:53.185Z,36.20
2022-08-17T03:19:19.873Z,37.10
2022-08-17T03:21:46.557Z,33.45
2022-08-17T03:24:21.832Z,36.63
2022-08-17T03:26:55.859Z,37.60
2022-08-17T03:29:22.661Z,36.95
2022-08-17T03:31:50.276Z,38.75
2022-08-17T03:34:17.879Z,34.20
2022-08-17T03:36:44.600Z,36.28
2022-08-17T03:39:11.312Z,38.45
2022-08-17T03:41:43.137Z,36.85
2022-08-17T03:44:10.012Z,36.90
2022-08-17T03:46:55.318Z,35.45
2022-08-17T03:49:40.823Z,34.47
2022-08-17T03:52:26.365Z,34.40
2022-08-17T03:55:11.947Z,34.22
2022-08-17T03:57:38.746Z,34.28
2022-08-17T04:00:06.187Z,35.13
2022-08-17T04:02:34.125Z,31.90
2022-08-17T04:05:01.458Z,30.88
2022-08-17T04:07:30.364Z,35.90
2022-08-17T04:09:58.173Z,30.08
2022-08-17T04:12:26.435Z,34.88
2022-08-17T04:14:55.009Z,35.17
2022-08-17T04:17:24.540Z,34.72
2022-08-17T04:19:51.848Z,32.83
2022-08-17T04:22:30.869Z,30.67
2022-08-17T04:25:01.625Z,36.10
2022-08-17T04:27:28.333Z,31.17
2022-08-17T04:29:56.079Z,32.35
2022-08-17T04:33:02.297Z,31.00
2022-08-17T04:35:11.365Z,34.17
2022-08-17T04:37:38.046Z,31.77
2022-08-17T04:40:25.962Z,36.33
2022-08-17T04:43:02.069Z,38.17
2022-08-17T04:45:32.008Z,32.35
2022-08-17T04:50:25.543Z,32.25
2022-08-17T04:52:52.283Z,32.97
2022-08-17T04:55:19.245Z,31.42
2022-08-17T04:57:46.014Z,33.08
2022-08-17T05:00:13.265Z,29.30
2022-08-17T05:02:49.726Z,35.15
2022-08-17T05:05:28.821Z,31.25
2022-08-17T05:07:59.396Z,32.65
2022-08-17T05:10:29.405Z,31.30
2022-08-17T05:15:29.001Z,29.88
2022-08-17T05:18:00.555Z,33.47
2022-08-17T05:20:27.999Z,27.42
2022-08-17T05:22:57.426Z,27.33
2022-08-17T05:25:30.009Z,32.17
2022-08-17T05:28:00.166Z,27.40
2022-08-17T05:30:28.924Z,27.98
2022-08-17T05:32:55.651Z,31.48
2022-08-17T05:35:23.454Z,29.45
2022-08-17T05:37:50.794Z,26.70
2022-08-17T05:40:18.874Z,27.48
2022-08-17T05:42:45.533Z,25.13
2022-08-17T05:45:12.641Z,26.92
2022-08-17T05:47:39.995Z,28.35
2022-08-17T05:50:09.671Z,24.20
2022-08-17T05:58:14.083Z,25.38
2022-08-17T06:01:01.199Z,27.27
2022-08-17T06:03:56.595Z,25.95
2022-08-17T06:06:45.056Z,26.45
2022-08-17T06:09:40.284Z,27.25
2022-08-17T06:12:38.018Z,23.95
2022-08-17T06:15:30.758Z,24.42
2022-08-17T06:18:04.816Z,29.80
2022-08-17T06:20:50.358Z,24.55
2022-08-17T06:23:34.954Z,25.38
2022-08-17T06:26:12.831Z,23.52
2022-08-17T06:28:49.245Z,26.70
2022-08-17T06:31:22.263Z,24.25
2022-08-17T06:33:50.113Z,27.33
2022-08-17T06:36:35.643Z,27.48
2022-08-17T06:39:34.164Z,24.55
2022-08-17T06:42:54.791Z,23.85
2022-08-17T06:45:17.829Z,23.15
2022-08-17T06:48:04.497Z,25.65
2022-08-17T06:50:49.193Z,22.42
2022-08-17T06:53:34.543Z,24.00
2022-08-17T06:56:12.852Z,22.92
2022-08-17T06:58:43.397Z,23.02
2022-08-17T07:01:15.847Z,21.55
2022-08-17T07:04:11.746Z,26.55
2022-08-17T07:06:50.490Z,26.70
2022-08-17T07:09:26.197Z,23.45
2022-08-17T07:12:04.326Z,23.45
2022-08-17T07:14:39.410Z,21.20
2022-08-17T07:17:15.457Z,23.90
2022-08-17T07:19:45.956Z,23.83
2022-08-17T07:22:54.785Z,23.85
2022-08-17T07:25:27.567Z,21.55
2022-08-17T07:27:59.675Z,22.65
2022-08-17T07:30:37.134Z,22.98
2022-08-17T07:33:26.599Z,26.45
2022-08-17T07:35:53.944Z,20.38
2022-08-17T07:38:26.988Z,22.77
2022-08-17T07:41:03.212Z,24.67
2022-08-17T07:43:35.519Z,21.45
2022-08-17T07:46:39.461Z,26.40
2022-08-17T07:49:08.873Z,24.10
2022-08-17T07:51:44.102Z,21.02
2022-08-17T07:54:22.346Z,20.30
2022-08-17T07:57:27.927Z,24.33
2022-08-17T08:00:03.048Z,21.88
2022-08-17T08:02:40.271Z,24.95
2022-08-17T08:05:30.842Z,21.45
2022-08-17T08:08:28.198Z,24.27
2022-08-17T08:11:05.304Z,21.63
2022-08-17T08:13:33.279Z,22.92
2022-08-17T08:16:24.566Z,21.52
2022-08-17T08:19:01.504Z,21.98
2022-08-17T08:22:11.349Z,23.02
2022-08-17T08:24:43.921Z,23.08
2022-08-17T08:27:42.983Z,22.55
2022-08-17T08:30:14.545Z,19.73
2022-08-17T08:33:08.462Z,20.65
2022-08-17T08:35:44.520Z,22.92
2022-08-17T08:38:30.851Z,24.92
2022-08-17T08:41:19.380Z,21.63
2022-08-17T08:43:53.423Z,19.00
2022-08-17T08:46:52.308Z,22.13
2022-08-17T08:49:59.505Z,18.70
2022-08-17T08:53:03.860Z,21.60
2022-08-17T08:55:47.757Z,22.50
2022-08-17T08:58:43.861Z,22.67
2022-08-17T09:01:48.139Z,18.38
2022-08-17T09:04:26.561Z,23.40
2022-08-17T09:07:18.886Z,22.52
2022-08-17T09:10:13.654Z,23.45
2022-08-17T09:13:09.375Z,24.05
2022-08-17T09:15:56.028Z,21.30
2022-08-17T09:19:01.185Z,21.40
2022-08-17T09:21:48.094Z,20.50
2022-08-17T09:24:24.201Z,18.23
2022-08-17T09:27:03.350Z,20.42
2022-08-17T09:29:34.990Z,20.08
2022-08-17T09:32:23.955Z,19.45
2022-08-17T09:34:54.902Z,21.35
2022-08-17T09:37:47.191Z,22.02
2022-08-17T09:40:32.908Z,21.30
2022-08-17T09:43:31.586Z,21.80
2022-08-17T09:46:02.617Z,25.85
2022-08-17T09:48:39.683Z,21.83
2022-08-17T09:51:22.194Z,18.98
2022-08-17T09:53:50.052Z,20.95
2022-08-17T09:57:05.973Z,20.13
2022-08-17T09:59:47.496Z,20.90
2022-08-17T10:02:58.470Z,19.08
2022-08-17T10:05:34.652Z,20.45
2022-08-17T10:08:21.685Z,18.58
2022-08-17T10:11:45.733Z,18.73
2022-08-17T10:14:43.555Z,21.60
2022-08-17T10:17:20.414Z,18.60
2022-08-17T10:20:02.074Z,21.98
2022-08-17T10:23:09.827Z,20.95
2022-08-17T10:26:01.132Z,19.98
2022-08-17T10:28:36.095Z,20.05
2022-08-17T10:31:33.141Z,19.95
2022-08-17T10:36:38.164Z,17.90
2022-08-17T10:39:10.824Z,18.83
2022-08-17T10:41:45.329Z,22.90
2022-08-17T10:44:39.217Z,19.98
2022-08-17T10:47:06.453Z,19.88
2022-08-17T10:49:47.684Z,18.83
2022-08-17T10:52:20.992Z,19.45
2022-08-17T10:54:58.244Z,18.00
2022-08-17T10:57:37.249Z,23.83
2022-08-17T11:00:03.993Z,18.02
2022-08-17T11:02:41.278Z,18.95
2022-08-17T11:05:20.186Z,22.50
2022-08-17T11:08:13.395Z,21.27
2022-08-17T11:10:59.105Z,21.88
2022-08-17T11:13:58.040Z,18.77
2022-08-17T11:16:42.513Z,22.08
2022-08-17T11:19:38.401Z,23.65
2022-08-17T11:22:38.792Z,20.35
2022-08-17T11:25:19.988Z,23.42
2022-08-17T11:27:53.782Z,19.13
2022-08-17T11:30:46.984Z,23.00
2022-08-17T11:33:33.969Z,20.85
2022-08-17T11:36:26.597Z,20.80
2022-08-17T11:41:31.826Z,21.58
2022-08-17T11:44:42.931Z,23.42
2022-08-17T11:47:38.462Z,25.45
2022-08-17T11:50:35.663Z,24.83
2022-08-17T11:53:02.702Z,22.17
2022-08-17T11:55:36.414Z,27.00
2022-08-17T11:58:16.283Z,23.77
2022-08-17T12:00:46.010Z,27.27
2022-08-17T12:05:53.489Z,23.95
2022-08-17T12:08:21.743Z,25.05
2022-08-17T12:11:57.796Z,24.23
2022-08-17T12:15:05.916Z,24.85
2022-08-17T12:17:52.274Z,20.02
2022-08-17T12:20:24.127Z,22.17
2022-08-17T12:22:57.636Z,22.77
2022-08-17T12:25:33.035Z,22.25
2022-08-17T12:28:06.238Z,20.52
2022-08-17T12:30:36.183Z,20.77
2022-08-17T12:33:03.216Z,19.07
2022-08-17T12:35:34.604Z,21.63
2022-08-17T12:38:03.029Z,19.40
2022-08-17T12:40:32.403Z,21.02
2022-08-17T12:43:07.766Z,20.80
2022-08-17T12:45:39.694Z,24.33
2022-08-17T12:48:11.325Z,22.08
2022-08-17T12:50:44.836Z,22.02
2022-08-17T12:53:17.337Z,21.55
2022-08-17T12:55:44.601Z,22.23
2022-08-17T12:58:14.585Z,21.15
2022-08-17T13:00:48.687Z,21.88
2022-08-17T13:03:21.042Z,22.30
2022-08-17T13:06:09.509Z,26.58
2022-08-17T13:08:43.514Z,24.65
2022-08-17T13:11:20.110Z,23.45
2022-08-17T13:13:54.194Z,24.65
2022-08-17T13:16:30.791Z,24.05
2022-08-17T13:19:15.972Z,23.90
2022-08-17T13:21:49.837Z,23.58
2022-08-17T13:24:29.199Z,22.70
2022-08-17T13:27:08.020Z,22.50
2022-08-17T13:29:39.832Z,25.27
2022-08-17T13:32:13.596Z,24.92
2022-08-17T13:35:12.131Z,20.17
2022-08-17T13:37:36.620Z,22.85
2022-08-17T13:40:09.389Z,22.75
2022-08-17T13:42:51.499Z,22.70
2022-08-17T13:45:36.079Z,21.15
2022-08-17T13:48:10.989Z,23.45
2022-08-17T13:50:47.943Z,23.88
2022-08-17T13:53:51.213Z,24.17
2022-08-17T13:57:04.962Z,27.27
2022-08-17T13:59:53.380Z,22.35
2022-08-17T14:02:22.572Z,22.80
2022-08-17T14:04:53.316Z,22.63
2022-08-17T14:07:19.954Z,22.40
2022-08-17T14:09:54.826Z,23.95
2022-08-17T14:12:27.385Z,23.58
2022-08-17T14:14:56.359Z,23.55
2022-08-17T14:17:25.071Z,18.80
2022-08-17T14:19:52.580Z,21.95
2022-08-17T14:22:25.688Z,22.00
2022-08-17T14:24:52.893Z,20.13
2022-08-17T14:27:20.768Z,25.15
2022-08-17T14:29:48.312Z,21.42
2022-08-17T14:32:23.981Z,20.60
2022-08-17T14:34:51.623Z,21.73
2022-08-17T14:37:20.129Z,20.63
2022-08-17T14:39:46.874Z,24.63
2022-08-17T14:42:15.082Z,19.65
2022-08-17T14:44:41.848Z,20.90
2022-08-17T14:47:14.895Z,20.23
2022-08-17T14:49:42.207Z,21.38
2022-08-17T14:52:11.851Z,22.00
2022-08-17T14:57:24.688Z,17.75
2022-08-17T15:00:10.068Z,18.75
2022-08-17T15:02:53.587Z,22.45
2022-08-17T15:05:22.683Z,18.17
2022-08-17T15:07:49.722Z,21.67
2022-08-17T15:10:17.620Z,19.15
2022-08-17T15:12:44.450Z,17.92
2022-08-17T15:15:14.009Z,18.77
2022-08-17T15:17:46.047Z,23.05
2022-08-17T15:20:28.326Z,21.13
2022-08-17T15:22:56.099Z,19.70
2022-08-17T15:25:24.949Z,20.63
2022-08-17T15:27:52.526Z,22.40
2022-08-17T15:30:20.430Z,20.17
2022-08-17T15:32:54.033Z,16.83
2022-08-17T15:35:27.297Z,17.65
2022-08-17T15:37:56.625Z,19.10
2022-08-17T15:40:26.056Z,20.42
2022-08-17T15:42:52.951Z,21.13
2022-08-17T15:45:25.353Z,18.10
2022-08-17T15:47:53.276Z,20.83
2022-08-17T15:50:20.079Z,19.35
2022-08-17T15:52:47.543Z,16.20
2022-08-17T15:55:15.520Z,17.02
2022-08-17T15:57:42.233Z,16.95
2022-08-17T16:00:11.314Z,17.48
2022-08-17T16:03:15.106Z,16.98
2022-08-17T16:05:28.717Z,16.60
2022-08-17T16:07:58.565Z,20.70
2022-08-17T16:10:35.629Z,16.98
2022-08-17T16:13:04.001Z,18.63
2022-08-17T16:15:33.845Z,15.48
2022-08-17T16:18:00.608Z,20.08
2022-08-17T16:20:27.883Z,17.75
2022-08-17T16:22:55.167Z,18.80
2022-08-17T16:25:50.376Z,17.00
2022-08-17T16:28:17.122Z,15.25
2022-08-17T16:30:45.317Z,16.52
2022-08-17T16:33:13.548Z,18.15
2022-08-17T16:35:42.018Z,21.27
2022-08-17T16:38:11.047Z,17.05
2022-08-17T16:40:38.078Z,17.27
2022-08-17T16:43:10.450Z,19.15
2022-08-17T16:45:40.295Z,20.63
2022-08-17T16:48:09.284Z,16.00
2022-08-17T16:50:37.246Z,15.63
2022-08-17T16:53:10.587Z,18.45
2022-08-17T16:55:38.280Z,15.38
2022-08-17T16:58:06.550Z,20.75
2022-08-17T17:00:33.738Z,16.48
2022-08-17T17:03:19.782Z,21.25
2022-08-17T17:06:08.152Z,14.65
2022-08-17T17:08:48.493Z,15.75
2022-08-17T17:11:40.303Z,17.63
2022-08-17T17:14:15.577Z,15.18
2022-08-17T17:16:57.737Z,16.00
2022-08-17T17:19:43.038Z,18.50
2022-08-17T17:22:25.580Z,20.42
2022-08-17T17:25:04.419Z,22.45
2022-08-17T17:27:37.469Z,18.87
2022-08-17T17:30:42.608Z,16.13
2022-08-17T17:33:23.410Z,17.83
2022-08-17T17:36:13.028Z,16.95
2022-08-17T17:38:49.141Z,17.23
2022-08-17T17:41:26.323Z,20.45
2022-08-17T17:44:07.469Z,20.13
2022-08-17T17:46:38.444Z,19.70
2022-08-17T17:49:06.084Z,21.05
2022-08-17T17:52:19.460Z,20.27
2022-08-17T17:55:17.317Z,22.50
2022-08-17T17:58:00.742Z,21.23
2022-08-17T18:00:48.982Z,21.88
2022-08-17T18:03:15.665Z,24.33
2022-08-17T18:05:54.670Z,20.67
2022-08-17T18:08:38.476Z,19.45
2022-08-17T18:11:24.156Z,22.70
2022-08-17T18:14:22.979Z,21.27
2022-08-17T18:16:57.967Z,21.27
2022-08-17T18:19:27.017Z,21.30
2022-08-17T18:22:22.906Z,24.87
2022-08-17T18:24:55.917Z,21.83
2022-08-17T18:27:25.877Z,21.42
2022-08-17T18:32:37.725Z,22.42
2022-08-17T18:35:10.310Z,25.00
2022-08-17T18:37:37.159Z,28.33
2022-08-17T18:40:21.732Z,31.48
2022-08-17T18:43:06.429Z,33.75
2022-08-17T18:45:35.316Z,32.10
2022-08-17T18:48:02.533Z,32.15
2022-08-17T18:50:41.408Z,37.35
2022-08-17T18:53:36.485Z,37.05
2022-08-17T18:56:24.314Z,41.85
2022-08-17T18:59:01.521Z,36.17
2022-08-17T19:01:42.071Z,34.60
2022-08-17T19:04:36.252Z,34.10
2022-08-17T19:07:24.536Z,33.97
2022-08-17T19:10:16.494Z,33.78
2022-08-17T19:13:00.227Z,34.08
2022-08-17T19:15:37.922Z,39.22
2022-08-17T19:18:17.906Z,29.45
2022-08-17T19:23:35.959Z,34.47
2022-08-17T19:26:51.287Z,33.05
2022-08-17T19:29:03.904Z,36.55
2022-08-17T19:31:32.208Z,35.40
2022-08-17T19:34:01.564Z,32.17
2022-08-17T19:36:49.106Z,36.83
2022-08-17T19:39:42.951Z,33.53
2022-08-17T19:42:23.291Z,33.95
2022-08-17T19:45:08.406Z,35.42
2022-08-17T19:48:03.033Z,35.35
2022-08-17T19:51:08.392Z,35.17
2022-08-17T19:54:06.031Z,31.95
2022-08-17T19:56:55.681Z,35.85
2022-08-17T20:00:03.006Z,33.37
2022-08-17T20:02:38.564Z,36.17
2022-08-17T20:05:13.111Z,32.70
2022-08-17T20:07:46.177Z,38.22
2022-08-17T20:10:47.286Z,38.70
2022-08-17T20:13:33.430Z,34.83
2022-08-17T20:16:02.560Z,37.03
2022-08-17T20:18:50.223Z,32.72
2022-08-17T20:21:26.428Z,34.95
2022-08-17T20:24:03.470Z,32.88
2022-08-17T20:26:58.959Z,32.15
2022-08-17T20:29:37.001Z,34.17
2022-08-17T20:32:17.016Z,40.40
2022-08-17T20:34:48.724Z,39.42
2022-08-17T20:37:15.598Z,31.10
2022-08-17T20:40:05.975Z,36.00
2022-08-17T20:42:35.295Z,39.28
2022-08-17T20:45:22.063Z,36.22
2022-08-17T20:48:18.615Z,33.72
2022-08-17T20:50:45.276Z,36.70
2022-08-17T20:53:48.275Z,33.05
2022-08-17T20:56:49.182Z,31.83
2022-08-17T20:59:31.787Z,33.63
2022-08-17T21:02:18.716Z,35.17
2022-08-17T21:04:54.935Z,37.95
2022-08-17T21:07:43.610Z,39.88
2022-08-17T21:10:13.260Z,41.03
2022-08-17T21:12:50.096Z,34.80
2022-08-17T21:15:54.195Z,37.47
2022-08-17T21:18:40.404Z,36.33
2022-08-17T21:21:31.417Z,37.55
2022-08-17T21:24:36.075Z,37.53
2022-08-17T21:27:12.338Z,37.13
2022-08-17T21:29:54.275Z,39.53
2022-08-17T21:32:30.132Z,40.22
2022-08-17T21:35:07.195Z,34.05
2022-08-17T21:37:46.184Z,35.35
2022-08-17T21:40:13.011Z,38.17
2022-08-17T21:42:47.735Z,36.40
2022-08-17T21:45:31.937Z,36.15
2022-08-17T21:48:19.634Z,36.28
2022-08-17T21:51:10.499Z,37.35
2022-08-17T21:53:45.208Z,37.20
2022-08-17T21:56:20.573Z,33.60
2022-08-17T21:59:01.864Z,35.35
2022-08-17T22:01:34.907Z,37.90
2022-08-17T22:04:11.228Z,33.70
2022-08-17T22:06:41.683Z,37.42
2022-08-17T22:09:15.897Z,37.58
2022-08-17T22:11:59.561Z,34.75
2022-08-17T22:14:53.244Z,38.95
2022-08-17T22:17:26.676Z,36.20
2022-08-17T22:19:58.576Z,37.75
2022-08-17T22:22:30.571Z,37.28
2022-08-17T22:25:05.330Z,35.95
2022-08-17T22:27:54.792Z,35.58
2022-08-17T22:30:42.963Z,32.95
2022-08-17T22:33:35.153Z,33.22
2022-08-17T22:36:33.680Z,34.75
2022-08-17T22:39:23.072Z,35.30
2022-08-17T22:41:59.009Z,33.13
2022-08-17T22:44:37.704Z,32.80
2022-08-17T22:47:06.711Z,31.42
2022-08-17T22:49:52.995Z,35.72
2022-08-17T22:53:01.366Z,34.72
2022-08-17T22:55:49.775Z,35.42
2022-08-17T22:58:38.373Z,32.30
2022-08-17T23:01:28.146Z,31.23
2022-08-17T23:03:56.065Z,32.33
2022-08-17T23:06:24.445Z,32.70
2022-08-17T23:08:56.609Z,32.72
2022-08-17T23:11:42.976Z,33.13
2022-08-17T23:14:18.478Z,36.47
2022-08-17T23:16:45.495Z,32.38
2022-08-17T23:19:16.105Z,30.58
2022-08-17T23:21:46.688Z,31.60
2022-08-17T23:24:23.553Z,33.28
2022-08-17T23:26:50.659Z,33.63
2022-08-17T23:29:20.143Z,32.85
2022-08-17T23:31:49.362Z,31.98
2022-08-17T23:34:18.356Z,32.37
2022-08-17T23:36:53.931Z,32.63
2022-08-17T23:39:24.405Z,33.85
2022-08-17T23:41:55.346Z,35.85
2022-08-17T23:44:24.997Z,35.95
2022-08-17T23:46:53.483Z,32.35
2022-08-17T23:49:20.960Z,32.80
2022-08-17T23:51:48.867Z,31.10
2022-08-17T23:54:33.513Z,33.13
2022-08-17T23:57:05.156Z,31.02
2022-08-17T23:59:33.857Z,30.15
